Time;durP1;ratioP1;P1;durP2;ratioP2;P2;SDS_P1;SDS_P2;PMS_P1;PMS_P2;Temp;Humidity;BMP_temperature;BMP_pressure;BME280_temperature;BME280_humidity;BME280_pressure;Samples;Min_cycle;Max_cycle;Signal;HPM_P1;HPM_P2
2023/07/19 00:01:53;;;;;;;11.57;8.98;;;16.20;87.00;;;;;;5072216;28;20186;-91
2023/07/19 00:04:19;;;;;;;9.93;8.40;;;16.20;87.10;;;;;;5073590;28;20195;-91
2023/07/19 00:06:45;;;;;;;9.50;8.38;;;16.20;87.10;;;;;;5072931;28;20177;-89
2023/07/19 00:09:10;;;;;;;10.48;8.82;;;16.20;87.10;;;;;;5072436;28;20179;-90
2023/07/19 00:11:36;;;;;;;12.15;8.40;;;16.20;87.10;;;;;;5071779;28;20171;-90
2023/07/19 00:14:05;;;;;;;11.82;9.10;;;16.20;87.00;;;;;;5072226;28;20191;-90
2023/07/19 00:16:32;;;;;;;9.13;8.13;;;16.20;87.00;;;;;;5072763;28;20546;-91
2023/07/19 00:18:57;;;;;;;9.13;8.32;;;16.20;87.10;;;;;;5072339;28;20167;-91
2023/07/19 00:21:23;;;;;;;8.80;8.00;;;16.20;87.10;;;;;;5072249;28;20190;-90
2023/07/19 00:23:48;;;;;;;9.55;8.00;;;16.20;87.00;;;;;;5071624;28;20659;-89
2023/07/19 00:26:14;;;;;;;12.23;8.48;;;16.20;87.00;;;;;;5071560;28;20203;-89
2023/07/19 00:28:40;;;;;;;12.70;7.93;;;16.20;87.00;;;;;;5071992;28;20270;-90
2023/07/19 00:31:05;;;;;;;8.68;7.97;;;16.10;87.10;;;;;;5072271;28;20167;-89
2023/07/19 00:33:31;;;;;;;8.75;7.95;;;16.20;87.10;;;;;;5075485;28;20197;-90
2023/07/19 00:35:57;;;;;;;13.52;8.63;;;16.20;87.10;;;;;;5075556;28;20557;-90
2023/07/19 00:38:22;;;;;;;10.40;9.25;;;16.20;87.20;;;;;;5075595;28;20266;-90
2023/07/19 00:40:49;;;;;;;9.68;8.70;;;16.20;87.20;;;;;;5076551;28;20183;-89
2023/07/19 00:43:14;;;;;;;10.70;9.10;;;16.20;87.30;;;;;;5076092;28;20206;-90
2023/07/19 00:45:53;;;;;;;13.55;8.38;;;16.20;87.30;;;;;;5075164;28;20203;-89
2023/07/19 00:48:19;;;;;;;10.07;8.90;;;16.20;87.30;;;;;;5075261;28;20246;-90
2023/07/19 00:50:47;;;;;;;10.82;9.27;;;16.20;87.40;;;;;;5075796;28;20183;-89
2023/07/19 00:53:13;;;;;;;15.30;9.50;;;16.20;87.40;;;;;;5075138;28;20175;-90
2023/07/19 00:55:39;;;;;;;9.88;8.98;;;16.20;87.40;;;;;;5074988;28;20317;-90
2023/07/19 00:58:05;;;;;;;14.27;9.65;;;16.10;87.40;;;;;;5075196;28;20191;-90
2023/07/19 01:00:31;;;;;;;10.27;9.27;;;16.10;87.50;;;;;;5075055;28;20183;-89
2023/07/19 01:02:59;;;;;;;15.40;9.02;;;16.10;87.50;;;;;;5074916;28;20236;-89
2023/07/19 01:05:24;;;;;;;9.85;8.93;;;16.10;87.50;;;;;;5074996;28;20199;-90
2023/07/19 01:07:50;;;;;;;10.25;9.25;;;16.10;87.50;;;;;;5074933;28;20592;-90
2023/07/19 01:10:16;;;;;;;11.85;9.25;;;16.00;87.40;;;;;;5075813;28;20171;-89
2023/07/19 01:12:41;;;;;;;10.25;8.80;;;16.00;87.50;;;;;;5075919;28;20167;-90
2023/07/19 01:15:09;;;;;;;16.23;8.65;;;16.00;87.60;;;;;;5076420;28;20600;-91
2023/07/19 01:17:36;;;;;;;10.63;9.57;;;16.00;87.60;;;;;;5076550;28;20170;-91
2023/07/19 01:20:02;;;;;;;10.73;9.65;;;16.00;87.60;;;;;;5076234;28;20175;-91
2023/07/19 01:22:35;;;;;;;15.25;9.95;;;16.00;87.60;;;;;;5077208;28;20195;-91
2023/07/19 01:25:00;;;;;;;11.52;10.00;;;16.00;87.50;;;;;;5075882;28;20581;-91
2023/07/19 01:27:26;;;;;;;11.00;9.88;;;16.00;87.70;;;;;;5077213;28;20167;-91
2023/07/19 01:29:51;;;;;;;13.32;10.23;;;16.10;87.70;;;;;;5075596;28;20178;-91
2023/07/19 01:32:17;;;;;;;13.20;9.48;;;16.00;87.60;;;;;;5077173;28;20179;-91
2023/07/19 01:34:43;;;;;;;12.00;10.15;;;16.00;87.80;;;;;;5075330;28;20618;-91
2023/07/19 01:37:09;;;;;;;23.23;10.10;;;15.90;87.90;;;;;;5076074;28;20179;-91
2023/07/19 01:39:34;;;;;;;10.77;9.35;;;15.80;88.20;;;;;;5074873;28;20215;-91
2023/07/19 01:42:00;;;;;;;10.73;9.68;;;15.80;88.40;;;;;;5075733;28;20600;-91
2023/07/19 01:44:26;;;;;;;14.73;10.07;;;15.80;88.50;;;;;;5075130;28;20299;-91
2023/07/19 01:46:51;;;;;;;12.68;9.80;;;15.80;88.70;;;;;;5074455;28;20168;-90
2023/07/19 01:49:17;;;;;;;22.88;10.88;;;15.70;88.90;;;;;;5075597;28;20716;-90
2023/07/19 01:51:42;;;;;;;15.43;9.02;;;15.70;89.10;;;;;;5075931;28;20225;-90
2023/07/19 01:54:08;;;;;;;14.75;8.85;;;15.70;89.40;;;;;;5074224;28;20194;-90
2023/07/19 01:56:33;;;;;;;12.23;8.60;;;15.60;89.60;;;;;;5075605;28;20516;-90
2023/07/19 01:58:59;;;;;;;11.77;8.60;;;15.60;89.60;;;;;;5075469;28;20666;-91
2023/07/19 02:01:24;;;;;;;10.25;8.75;;;15.50;89.70;;;;;;5074246;28;20178;-91
2023/07/19 02:03:50;;;;;;;9.75;8.77;;;15.60;89.80;;;;;;5075294;28;20198;-91
2023/07/19 02:06:16;;;;;;;11.63;8.95;;;15.50;89.80;;;;;;5074140;28;20206;-91
2023/07/19 02:08:41;;;;;;;14.38;9.10;;;15.50;89.80;;;;;;5075633;28;20170;-91
2023/07/19 02:11:07;;;;;;;10.57;9.15;;;15.50;89.90;;;;;;5074018;28;20172;-90
2023/07/19 02:13:32;;;;;;;15.23;10.10;;;15.40;89.70;;;;;;5075233;28;20187;-90
2023/07/19 02:15:57;;;;;;;17.10;10.07;;;15.30;89.70;;;;;;5074096;28;20187;-90
2023/07/19 02:18:23;;;;;;;15.35;10.02;;;15.30;89.80;;;;;;5073775;28;20184;-90
2023/07/19 02:20:51;;;;;;;16.40;9.73;;;15.30;89.90;;;;;;5073821;28;20730;-90
2023/07/19 02:23:19;;;;;;;12.20;9.38;;;15.20;90.00;;;;;;5073689;28;20289;-91
2023/07/19 02:25:49;;;;;;;15.95;10.27;;;15.20;90.20;;;;;;5075306;28;20286;-90
2023/07/19 02:28:15;;;;;;;17.48;10.90;;;15.10;90.40;;;;;;5075405;28;20185;-91
2023/07/19 02:30:45;;;;;;;21.17;11.07;;;15.00;90.70;;;;;;5073749;28;20643;-90
2023/07/19 02:33:14;;;;;;;15.57;10.13;;;15.00;91.00;;;;;;5075437;28;20180;-90
2023/07/19 02:35:40;;;;;;;24.05;9.68;;;14.90;91.20;;;;;;5075010;28;20182;-90
2023/07/19 02:38:06;;;;;;;10.07;9.07;;;14.80;91.30;;;;;;5075198;28;20168;-90
2023/07/19 02:40:31;;;;;;;10.40;8.43;;;14.80;91.40;;;;;;5074738;28;20531;-90
2023/07/19 02:42:57;;;;;;;19.73;8.63;;;14.70;91.40;;;;;;5074551;28;20183;-90
2023/07/19 02:45:24;;;;;;;15.10;8.50;;;14.70;91.50;;;;;;5074641;28;20194;-90
2023/07/19 02:47:50;;;;;;;17.40;8.55;;;14.60;91.60;;;;;;5074843;28;20477;-90
2023/07/19 02:50:18;;;;;;;;;;;14.60;91.70;;;;;;5073703;28;20187;-90
2023/07/19 02:52:43;;;;;;;;;;;14.60;91.80;;;;;;5073547;28;20143;-90
2023/07/19 02:55:09;;;;;;;21.00;8.88;;;14.60;91.90;;;;;;5072297;28;20368;-91
2023/07/19 02:57:34;;;;;;;14.75;8.65;;;14.60;92.10;;;;;;5073348;28;20224;-90
2023/07/19 03:00:00;;;;;;;16.20;9.15;;;14.50;92.10;;;;;;5073150;28;20191;-91
2023/07/19 03:02:25;;;;;;;10.88;8.30;;;14.50;92.20;;;;;;5074204;28;20236;-90
2023/07/19 03:04:51;;;;;;;21.30;8.60;;;14.50;92.30;;;;;;5074047;28;20281;-91
2023/07/19 03:07:16;;;;;;;12.45;8.45;;;14.50;92.40;;;;;;5074421;28;20065;-91
2023/07/19 03:09:42;;;;;;;11.68;8.35;;;14.60;92.40;;;;;;5072764;28;20175;-91
2023/07/19 03:12:08;;;;;;;18.42;7.72;;;14.60;92.40;;;;;;5072688;28;20202;-91
2023/07/19 03:14:33;;;;;;;11.68;8.45;;;14.60;92.50;;;;;;5074371;28;20192;-91
2023/07/19 03:16:59;;;;;;;12.32;7.88;;;14.60;92.50;;;;;;5073814;28;20183;-91
2023/07/19 03:19:25;;;;;;;12.40;8.30;;;14.60;92.60;;;;;;5074563;28;20304;-91
2023/07/19 03:21:50;;;;;;;10.15;7.65;;;14.60;92.70;;;;;;5072586;28;20468;-91
2023/07/19 03:24:16;;;;;;;9.73;6.93;;;14.70;92.70;;;;;;5073761;28;20223;-91
2023/07/19 03:26:41;;;;;;;13.57;7.80;;;14.70;92.70;;;;;;5072780;28;20632;-91
2023/07/19 03:29:07;;;;;;;11.63;7.80;;;14.60;92.50;;;;;;5073895;28;20638;-91
2023/07/19 03:31:32;;;;;;;9.40;7.90;;;14.50;92.30;;;;;;5072381;28;20168;-90
2023/07/19 03:33:58;;;;;;;18.02;8.30;;;14.50;92.30;;;;;;5073888;28;20270;-90
2023/07/19 03:36:23;;;;;;;14.52;8.27;;;14.40;92.20;;;;;;5073815;28;20254;-91
2023/07/19 03:38:49;;;;;;;14.30;8.35;;;14.30;92.20;;;;;;5073711;28;20261;-91
2023/07/19 03:41:15;;;;;;;13.95;8.13;;;14.30;92.20;;;;;;5073770;28;20553;-91
2023/07/19 03:43:40;;;;;;;10.43;8.10;;;14.30;92.30;;;;;;5072071;28;20209;-91
2023/07/19 03:46:07;;;;;;;9.30;7.35;;;14.30;92.20;;;;;;5072093;28;20209;-90
2023/07/19 03:48:35;;;;;;;8.15;7.35;;;14.20;92.30;;;;;;5073356;28;20229;-90
2023/07/19 03:51:01;;;;;;;14.80;8.50;;;14.20;92.40;;;;;;5072580;28;20217;-90
2023/07/19 03:53:28;;;;;;;18.40;8.63;;;14.20;92.40;;;;;;5073293;28;20681;-90
2023/07/19 03:55:59;;;;;;;15.70;9.20;;;14.20;92.50;;;;;;5072195;28;20171;-90
2023/07/19 03:58:26;;;;;;;14.57;8.40;;;14.20;92.60;;;;;;5073543;28;20171;-90
2023/07/19 04:00:52;;;;;;;16.23;8.65;;;14.20;92.70;;;;;;5072047;28;20179;-90
2023/07/19 04:03:18;;;;;;;15.07;7.82;;;14.20;92.70;;;;;;5072212;28;20291;-90
2023/07/19 04:05:44;;;;;;;18.48;8.18;;;14.10;92.70;;;;;;5073185;28;20222;-90
2023/07/19 04:08:10;;;;;;;18.93;8.90;;;14.10;92.80;;;;;;5072122;28;20175;-90
2023/07/19 04:10:35;;;;;;;10.50;7.43;;;14.10;92.80;;;;;;5072213;28;20223;-90
2023/07/19 04:13:01;;;;;;;15.95;7.88;;;14.10;92.80;;;;;;5072255;28;20202;-90
2023/07/19 04:15:26;;;;;;;10.13;6.77;;;14.10;92.80;;;;;;5072053;28;20175;-90
2023/07/19 04:17:52;;;;;;;10.80;6.93;;;14.10;92.80;;;;;;5073163;28;20262;-90
2023/07/19 04:20:17;;;;;;;15.47;8.03;;;14.20;92.90;;;;;;5073096;28;20178;-90
2023/07/19 04:22:43;;;;;;;8.40;7.05;;;14.20;92.90;;;;;;5072985;28;20187;-90
2023/07/19 04:25:09;;;;;;;11.63;7.97;;;14.20;93.00;;;;;;5071693;28;20214;-90
2023/07/19 04:27:35;;;;;;;11.20;7.33;;;14.20;93.00;;;;;;5073305;28;20174;-90
2023/07/19 04:30:00;;;;;;;14.07;7.53;;;14.20;93.10;;;;;;5071898;28;20258;-91
2023/07/19 04:32:26;;;;;;;12.52;7.68;;;14.30;93.20;;;;;;5073541;28;20647;-91
2023/07/19 04:34:53;;;;;;;9.77;7.88;;;14.30;93.20;;;;;;5073370;28;20197;-90
2023/07/19 04:37:18;;;;;;;15.02;8.10;;;14.30;93.10;;;;;;5072835;28;20171;-90
2023/07/19 04:39:44;;;;;;;10.00;8.40;;;14.20;93.10;;;;;;5072047;28;20780;-91
2023/07/19 04:42:10;;;;;;;10.27;7.83;;;14.20;93.20;;;;;;5074677;28;20171;-90
2023/07/19 04:44:38;;;;;;;16.10;8.50;;;14.20;93.20;;;;;;5072939;28;20200;-91
2023/07/19 04:47:04;;;;;;;12.07;7.47;;;14.20;93.20;;;;;;5073865;28;20164;-90
2023/07/19 04:49:30;;;;;;;13.93;7.90;;;14.20;93.20;;;;;;5074776;28;20647;-91
2023/07/19 04:51:56;;;;;;;13.50;8.00;;;14.10;93.30;;;;;;5073625;28;20187;-92
2023/07/19 04:54:22;;;;;;;10.27;7.53;;;14.20;93.40;;;;;;5075214;28;20191;-91
2023/07/19 04:56:47;;;;;;;10.23;8.10;;;14.20;93.40;;;;;;5075043;28;20175;-91
2023/07/19 04:59:13;;;;;;;8.83;7.93;;;14.10;93.50;;;;;;5073575;28;20185;-91
2023/07/19 05:01:38;;;;;;;11.27;8.47;;;14.20;93.50;;;;;;5073314;28;20207;-92
2023/07/19 05:04:04;;;;;;;12.20;8.33;;;14.10;93.50;;;;;;5073854;28;20187;-92
2023/07/19 05:06:31;;;;;;;10.23;8.50;;;14.10;93.60;;;;;;5074224;28;20176;-92
2023/07/19 05:08:57;;;;;;;12.90;8.57;;;14.00;93.60;;;;;;5077090;28;20597;-92
2023/07/19 05:11:25;;;;;;;10.87;8.50;;;14.00;93.60;;;;;;5076180;28;20172;-92
2023/07/19 05:13:51;;;;;;;8.33;7.43;;;14.00;93.70;;;;;;5075540;28;20202;-91
2023/07/19 05:16:17;;;;;;;9.17;7.00;;;14.00;93.70;;;;;;5077637;28;20172;-92
2023/07/19 05:18:42;;;;;;;8.47;6.87;;;14.00;93.70;;;;;;5076051;28;20171;-92
2023/07/19 05:21:08;;;;;;;9.73;7.40;;;14.00;93.70;;;;;;5079348;28;20264;-92
2023/07/19 05:23:33;;;;;;;9.50;7.13;;;13.90;93.70;;;;;;5078561;28;20551;-92
2023/07/19 05:25:59;;;;;;;8.73;7.17;;;14.00;93.70;;;;;;5080339;28;20202;-92
2023/07/19 05:28:24;;;;;;;10.10;7.87;;;13.90;93.80;;;;;;5077685;28;20182;-92
2023/07/19 05:30:50;;;;;;;13.77;7.80;;;14.00;93.80;;;;;;5077135;28;20176;-92
2023/07/19 05:33:18;;;;;;;11.63;7.40;;;14.00;93.80;;;;;;5078050;28;20670;-92
2023/07/19 05:35:48;;;;;;;8.47;7.63;;;14.00;93.80;;;;;;5078437;28;20171;-92
2023/07/19 05:38:13;;;;;;;12.97;7.53;;;14.00;93.80;;;;;;5081198;28;20254;-92
2023/07/19 05:40:39;;;;;;;8.23;7.50;;;14.00;93.80;;;;;;5079205;28;20215;-91
2023/07/19 05:43:04;;;;;;;11.73;8.17;;;14.00;93.80;;;;;;5077727;28;20172;-91
2023/07/19 05:45:31;;;;;;;9.03;7.17;;;14.00;93.90;;;;;;5078823;28;20195;-91
2023/07/19 05:47:56;;;;;;;8.70;7.80;;;13.90;93.80;;;;;;5076926;28;20175;-91
2023/07/19 05:50:22;;;;;;;8.03;7.43;;;13.90;93.80;;;;;;5076979;28;20207;-91
2023/07/19 05:52:47;;;;;;;8.33;7.53;;;13.90;93.90;;;;;;5078784;28;20209;-92
2023/07/19 05:55:15;;;;;;;9.37;7.70;;;13.90;93.80;;;;;;5077496;28;20199;-92
2023/07/19 05:57:40;;;;;;;7.80;7.20;;;13.90;93.80;;;;;;5077609;28;20197;-92
2023/07/19 06:00:13;;;;;;;8.33;7.53;;;13.90;93.80;;;;;;5077440;28;20647;-91
2023/07/19 06:02:39;;;;;;;7.80;7.00;;;13.90;93.80;;;;;;5076859;28;20167;-91
2023/07/19 06:05:06;;;;;;;7.93;7.17;;;13.90;93.80;;;;;;5077839;28;20211;-91
2023/07/19 06:07:32;;;;;;;7.77;6.90;;;13.80;93.80;;;;;;5078722;28;20695;-91
2023/07/19 06:09:58;;;;;;;7.37;6.70;;;13.80;93.80;;;;;;5078515;28;20167;-89
2023/07/19 06:12:23;;;;;;;10.70;7.20;;;13.80;93.70;;;;;;5078565;28;20186;-91
2023/07/19 06:14:49;;;;;;;11.67;10.83;;;13.80;93.80;;;;;;5079472;28;20191;-90
2023/07/19 06:17:14;;;;;;;12.27;11.47;;;13.80;93.70;;;;;;5078594;28;20225;-90
2023/07/19 06:19:40;;;;;;;13.30;12.10;;;13.80;93.80;;;;;;5077391;28;20172;-90
2023/07/19 06:22:05;;;;;;;14.97;12.07;;;13.80;93.80;;;;;;5080121;28;20237;-91
2023/07/19 06:24:31;;;;;;;13.37;12.17;;;13.90;93.80;;;;;;5079974;28;20199;-91
2023/07/19 06:26:56;;;;;;;13.03;12.03;;;13.90;93.80;;;;;;5078890;28;20171;-91
2023/07/19 06:29:23;;;;;;;13.67;11.90;;;13.90;93.90;;;;;;5077770;28;20646;-91
2023/07/19 06:31:48;;;;;;;13.70;12.40;;;14.00;93.90;;;;;;5076277;28;20171;-91
2023/07/19 06:34:14;;;;;;;14.00;13.10;;;14.00;93.90;;;;;;5075020;28;20567;-92
2023/07/19 06:36:39;;;;;;;14.55;13.35;;;14.00;93.90;;;;;;5077840;28;20207;-92
2023/07/19 06:39:05;;;;;;;14.60;13.57;;;14.10;94.00;;;;;;5074906;28;20175;-91
2023/07/19 06:41:30;;;;;;;14.20;12.83;;;14.10;93.90;;;;;;5076338;28;20177;-92
2023/07/19 06:43:57;;;;;;;14.53;8.93;;;14.10;94.00;;;;;;5075170;28;20221;-91
2023/07/19 06:46:23;;;;;;;8.87;7.93;;;14.10;94.00;;;;;;5073814;28;20196;-89
2023/07/19 06:48:49;;;;;;;8.47;7.77;;;14.00;93.90;;;;;;5074444;28;20651;-89
2023/07/19 06:51:16;;;;;;;9.17;8.30;;;14.00;93.90;;;;;;5074579;28;20250;-90
2023/07/19 06:53:42;;;;;;;9.40;7.93;;;13.90;93.90;;;;;;5077149;28;20195;-91
2023/07/19 06:56:07;;;;;;;9.00;8.27;;;14.00;93.90;;;;;;5076397;28;20172;-91
2023/07/19 06:58:33;;;;;;;9.67;8.67;;;14.00;94.00;;;;;;5076914;28;20176;-91
2023/07/19 07:00:59;;;;;;;9.20;8.60;;;14.10;94.00;;;;;;5076029;28;20202;-90
2023/07/19 07:03:25;;;;;;;9.90;9.00;;;14.10;94.00;;;;;;5076424;28;20195;-91
2023/07/19 07:05:50;;;;;;;10.13;9.13;;;14.00;94.00;;;;;;5077480;28;20332;-91
2023/07/19 07:08:16;;;;;;;10.03;9.10;;;14.10;94.00;;;;;;5077316;28;20167;-91
2023/07/19 07:10:45;;;;;;;9.70;9.00;;;14.00;94.00;;;;;;5078377;28;20197;-90
2023/07/19 07:13:10;;;;;;;10.43;9.43;;;14.00;94.00;;;;;;5078854;28;20716;-90
2023/07/19 07:15:36;;;;;;;13.93;9.40;;;14.10;94.00;;;;;;5078161;28;20168;-90
2023/07/19 07:18:02;;;;;;;10.00;9.00;;;14.10;94.00;;;;;;5075227;28;20183;-91
2023/07/19 07:20:27;;;;;;;9.10;8.30;;;14.20;94.10;;;;;;5076160;28;20171;-91
2023/07/19 07:22:55;;;;;;;9.20;8.30;;;14.20;94.00;;;;;;5074920;28;20174;-90
2023/07/19 07:25:20;;;;;;;8.87;8.00;;;14.20;94.00;;;;;;5074383;28;20195;-91
2023/07/19 07:27:46;;;;;;;9.27;8.37;;;14.20;93.90;;;;;;5074383;28;20236;-91
2023/07/19 07:30:12;;;;;;;9.63;8.77;;;14.20;94.00;;;;;;5074535;28;20193;-90
2023/07/19 07:32:37;;;;;;;9.63;8.73;;;14.30;93.90;;;;;;5075643;28;20587;-90
2023/07/19 07:35:05;;;;;;;8.33;7.50;;;14.30;93.90;;;;;;5073240;28;20218;-90
2023/07/19 07:37:30;;;;;;;8.85;7.78;;;14.30;93.80;;;;;;5073775;28;20179;-89
2023/07/19 07:39:56;;;;;;;8.80;8.10;;;14.30;93.80;;;;;;5072250;28;20175;-87
2023/07/19 07:42:23;;;;;;;8.50;7.57;;;14.30;93.70;;;;;;5071895;28;20669;-86
2023/07/19 07:44:49;;;;;;;8.35;7.75;;;14.30;93.60;;;;;;5073273;28;20191;-86
2023/07/19 07:47:14;;;;;;;8.40;7.70;;;14.30;93.60;;;;;;5072163;28;20175;-86
2023/07/19 07:49:40;;;;;;;8.32;7.63;;;14.30;93.50;;;;;;5072115;28;20174;-86
2023/07/19 07:52:06;;;;;;;7.97;7.32;;;14.40;93.40;;;;;;5073423;28;20171;-86
2023/07/19 07:54:32;;;;;;;8.18;7.57;;;14.30;93.30;;;;;;5072001;28;20199;-85
2023/07/19 07:56:57;;;;;;;9.75;8.00;;;14.30;93.20;;;;;;5072064;28;20180;-86
2023/07/19 07:59:23;;;;;;;9.10;8.25;;;14.30;93.10;;;;;;5071981;28;20232;-86
2023/07/19 08:01:48;;;;;;;8.77;7.97;;;14.40;93.10;;;;;;5073472;28;20168;-87
2023/07/19 08:04:14;;;;;;;9.52;8.55;;;14.40;92.80;;;;;;5073106;28;20198;-86
2023/07/19 08:06:40;;;;;;;9.95;8.00;;;14.50;92.90;;;;;;5073388;28;20210;-86
2023/07/19 08:09:05;;;;;;;8.88;7.95;;;14.50;92.80;;;;;;5072004;28;20286;-86
2023/07/19 08:11:32;;;;;;;8.85;8.07;;;14.60;92.80;;;;;;5073108;28;20172;-86
2023/07/19 08:13:58;;;;;;;9.05;8.27;;;14.70;92.90;;;;;;5072212;28;20572;-87
2023/07/19 08:16:23;;;;;;;8.50;7.60;;;14.70;92.80;;;;;;5071885;28;20175;-86
2023/07/19 08:18:49;;;;;;;8.15;7.55;;;14.80;92.80;;;;;;5072984;28;20701;-86
2023/07/19 08:21:14;;;;;;;7.95;7.15;;;14.80;92.80;;;;;;5073029;28;20193;-86
2023/07/19 08:23:40;;;;;;;8.38;7.68;;;14.80;92.70;;;;;;5072974;28;20215;-86
2023/07/19 08:26:06;;;;;;;8.00;7.40;;;14.80;92.60;;;;;;5071758;28;20195;-86
2023/07/19 08:28:31;;;;;;;8.25;7.65;;;14.80;92.30;;;;;;5073543;28;20631;-86
2023/07/19 08:30:57;;;;;;;9.07;8.25;;;14.80;92.10;;;;;;5072042;28;20657;-86
2023/07/19 08:33:24;;;;;;;8.70;7.80;;;14.80;92.10;;;;;;5071981;28;20194;-86
2023/07/19 08:35:50;;;;;;;8.93;8.13;;;14.90;92.00;;;;;;5071940;28;20344;-86
2023/07/19 08:38:17;;;;;;;7.68;7.18;;;15.00;92.00;;;;;;5072941;28;20175;-86
2023/07/19 08:40:50;;;;;;;8.45;7.65;;;15.10;91.90;;;;;;5071936;28;20643;-87
2023/07/19 08:43:16;;;;;;;8.77;7.88;;;15.30;92.10;;;;;;5071572;28;20191;-86
2023/07/19 08:45:42;;;;;;;7.13;6.53;;;15.40;92.00;;;;;;5071498;28;20199;-86
2023/07/19 08:48:07;;;;;;;7.20;6.65;;;15.50;91.60;;;;;;5071588;28;20205;-86
2023/07/19 08:50:35;;;;;;;7.30;6.60;;;15.50;91.20;;;;;;5073027;28;20195;-86
2023/07/19 08:53:02;;;;;;;7.53;6.93;;;15.50;91.10;;;;;;5072255;28;20204;-86
2023/07/19 08:55:31;;;;;;;6.97;6.43;;;15.70;90.90;;;;;;5075793;28;20171;-87
2023/07/19 08:57:56;;;;;;;7.30;6.80;;;15.80;90.70;;;;;;5075759;28;20179;-87
2023/07/19 09:00:22;;;;;;;7.30;6.65;;;15.90;90.60;;;;;;5077540;28;20543;-87
2023/07/19 09:02:48;;;;;;;7.30;6.60;;;16.20;90.30;;;;;;5076208;28;20195;-87
2023/07/19 09:05:14;;;;;;;9.50;6.70;;;16.30;89.90;;;;;;5076101;28;20206;-87
2023/07/19 09:07:40;;;;;;;6.28;5.70;;;16.40;88.90;;;;;;5076493;28;20175;-88
2023/07/19 09:10:10;;;;;;;8.13;6.80;;;16.60;88.00;;;;;;5076024;28;20266;-87
2023/07/19 09:12:40;;;;;;;7.93;7.22;;;16.60;87.10;;;;;;5078239;28;20266;-88
2023/07/19 09:15:08;;;;;;;8.05;7.55;;;16.60;86.70;;;;;;5076379;28;20199;-87
2023/07/19 09:17:41;;;;;;;9.30;8.48;;;16.60;86.70;;;;;;5077161;28;20515;-87
2023/07/19 09:20:08;;;;;;;8.70;8.00;;;16.50;86.20;;;;;;5077517;28;20194;-87
2023/07/19 09:22:38;;;;;;;7.75;6.95;;;16.60;86.60;;;;;;5075432;28;20190;-87
2023/07/19 09:25:05;;;;;;;8.95;7.65;;;16.70;86.90;;;;;;5077622;28;20659;-87
2023/07/19 09:27:32;;;;;;;8.23;7.53;;;16.70;86.70;;;;;;5076351;28;20580;-87
2023/07/19 09:29:58;;;;;;;9.18;8.40;;;16.70;86.50;;;;;;5075638;28;20171;-87
2023/07/19 09:32:24;;;;;;;8.02;7.28;;;16.80;86.40;;;;;;5075770;28;20171;-87
2023/07/19 09:34:54;;;;;;;8.40;7.63;;;16.80;85.50;;;;;;5076101;28;20663;-86
2023/07/19 09:37:20;;;;;;;9.32;8.52;;;17.00;85.60;;;;;;5077281;28;20254;-87
2023/07/19 09:39:46;;;;;;;8.23;7.60;;;17.10;85.20;;;;;;5075726;28;20205;-87
2023/07/19 09:42:13;;;;;;;8.68;7.97;;;17.40;85.40;;;;;;5075911;28;20270;-87
2023/07/19 09:44:39;;;;;;;9.02;8.32;;;17.40;84.30;;;;;;5076597;28;20689;-87
2023/07/19 09:47:08;;;;;;;9.15;8.32;;;17.60;83.80;;;;;;5075517;28;20180;-87
2023/07/19 09:49:36;;;;;;;9.52;8.70;;;17.80;83.80;;;;;;5075269;28;20206;-87
2023/07/19 09:52:02;;;;;;;10.38;9.57;;;17.70;81.80;;;;;;5075681;28;20179;-87
2023/07/19 09:54:30;;;;;;;11.55;9.55;;;17.70;82.30;;;;;;5075384;28;20191;-87
2023/07/19 09:56:56;;;;;;;10.40;9.60;;;17.70;82.40;;;;;;5075621;28;20171;-87
2023/07/19 09:59:26;;;;;;;10.20;9.50;;;17.80;82.30;;;;;;5074763;28;20550;-87
2023/07/19 10:01:53;;;;;;;10.07;9.27;;;17.80;82.50;;;;;;5075915;28;20164;-87
2023/07/19 10:04:37;;;;;;;10.10;9.40;;;17.90;82.50;;;;;;5074633;28;20197;-87
2023/07/19 10:07:18;;;;;;;10.90;10.10;;;18.00;80.80;;;;;;5075177;28;20171;-87
2023/07/19 10:09:45;;;;;;;10.40;9.70;;;18.00;81.20;;;;;;5075349;28;20164;-87
2023/07/19 10:12:16;;;;;;;11.18;10.32;;;18.00;80.70;;;;;;5075341;28;20175;-87
2023/07/19 10:14:53;;;;;;;10.80;10.15;;;17.90;80.90;;;;;;5075754;28;20240;-88
2023/07/19 10:17:18;;;;;;;11.10;10.40;;;17.90;80.80;;;;;;5075294;28;20171;-87
2023/07/19 10:20:14;;;;;;;10.43;9.63;;;17.80;80.60;;;;;;5076084;28;20179;-88
2023/07/19 10:22:59;;;;;;;9.68;9.07;;;18.00;82.00;;;;;;5076738;28;20190;-87
2023/07/19 10:25:51;;;;;;;10.10;9.10;;;18.10;81.40;;;;;;5076514;28;20270;-87
2023/07/19 10:28:30;;;;;;;10.82;10.07;;;18.10;80.80;;;;;;5078574;28;20172;-87
2023/07/19 10:31:06;;;;;;;10.88;10.10;;;18.10;79.90;;;;;;5077173;28;20182;-88
2023/07/19 10:33:34;;;;;;;12.30;11.20;;;18.30;79.70;;;;;;5077900;28;20198;-88
2023/07/19 10:36:11;;;;;;;13.25;12.18;;;18.30;79.50;;;;;;5077712;28;20182;-85
2023/07/19 10:38:36;;;;;;;13.93;12.93;;;18.30;78.50;;;;;;5079192;28;20570;-88
2023/07/19 10:41:03;;;;;;;14.23;12.98;;;18.30;77.50;;;;;;5079286;28;20241;-88
2023/07/19 10:43:34;;;;;;;13.60;12.50;;;18.60;77.30;;;;;;5080040;28;20218;-88
2023/07/19 10:46:03;;;;;;;13.73;12.60;;;18.70;77.20;;;;;;5079617;28;20202;-88
2023/07/19 10:48:31;;;;;;;14.00;12.90;;;18.70;78.00;;;;;;5081109;28;20172;-88
2023/07/19 10:51:03;;;;;;;13.93;12.82;;;18.70;77.40;;;;;;5077175;28;20560;-88
2023/07/19 10:53:39;;;;;;;14.05;13.15;;;18.90;77.20;;;;;;5075600;28;20279;-87
2023/07/19 10:56:06;;;;;;;15.23;14.02;;;19.00;75.50;;;;;;5077025;28;20622;-88
2023/07/19 10:58:31;;;;;;;14.63;13.48;;;19.10;75.80;;;;;;5076655;28;20628;-87
2023/07/19 11:00:57;;;;;;;13.63;12.32;;;19.20;76.80;;;;;;5075489;28;20225;-88
2023/07/19 11:03:24;;;;;;;15.00;13.57;;;19.40;76.60;;;;;;5075441;28;20566;-87
2023/07/19 11:05:51;;;;;;;15.75;14.32;;;19.50;75.40;;;;;;5075626;28;20237;-87
2023/07/19 11:08:24;;;;;;;16.67;15.30;;;19.50;74.20;;;;;;5075718;28;20194;-88
2023/07/19 11:10:51;;;;;;;16.42;15.23;;;19.50;73.20;;;;;;5075397;28;20172;-87
2023/07/19 11:13:18;;;;;;;18.75;17.02;;;19.60;74.10;;;;;;5073432;28;20635;-85
2023/07/19 11:15:51;;;;;;;18.05;16.48;;;19.50;72.20;;;;;;5072945;28;20175;-87
2023/07/19 11:18:35;;;;;;;16.20;15.00;;;19.40;74.00;;;;;;5074518;28;20231;-87
2023/07/19 11:21:01;;;;;;;18.20;16.45;;;19.50;73.70;;;;;;5075928;28;20548;-85
2023/07/19 11:23:28;;;;;;;17.35;16.00;;;19.40;74.30;;;;;;5076362;28;20285;-86
2023/07/19 11:26:16;;;;;;;16.35;14.85;;;19.30;74.40;;;;;;5074781;28;20609;-85
2023/07/19 11:28:52;;;;;;;15.63;14.50;;;19.20;75.40;;;;;;5075121;28;20160;-85
2023/07/19 11:31:27;;;;;;;16.17;14.98;;;19.30;74.70;;;;;;5072520;28;20170;-86
2023/07/19 11:34:08;;;;;;;16.35;14.93;;;19.50;75.00;;;;;;5072907;28;20190;-85
2023/07/19 11:36:35;;;;;;;15.60;14.30;;;19.50;73.60;;;;;;5072293;28;20183;-85
2023/07/19 11:39:00;;;;;;;15.90;14.55;;;19.60;75.10;;;;;;5073318;28;20600;-86
2023/07/19 11:41:29;;;;;;;17.58;16.17;;;19.80;75.20;;;;;;5071969;28;20195;-85
2023/07/19 11:43:55;;;;;;;15.80;14.70;;;19.60;72.60;;;;;;5073186;28;20183;-85
2023/07/19 11:46:21;;;;;;;15.90;14.77;;;19.10;73.20;;;;;;5073931;28;20570;-85
2023/07/19 11:48:47;;;;;;;16.00;14.70;;;19.20;73.80;;;;;;5074097;28;20171;-86
2023/07/19 11:51:14;;;;;;;17.05;15.68;;;19.50;74.10;;;;;;5073762;28;20712;-85
2023/07/19 11:53:39;;;;;;;17.25;15.60;;;19.40;72.30;;;;;;5074452;28;20678;-85
2023/07/19 11:56:06;;;;;;;16.73;15.48;;;19.80;74.20;;;;;;5073664;28;20190;-87
2023/07/19 11:58:33;;;;;;;15.90;14.75;;;19.60;72.70;;;;;;5075201;28;20170;-85
2023/07/19 12:01:00;;;;;;;15.77;14.57;;;19.60;72.50;;;;;;5073060;28;20179;-86
2023/07/19 12:03:25;;;;;;;16.25;14.95;;;19.80;73.60;;;;;;5072838;28;20198;-86
2023/07/19 12:05:51;;;;;;;16.60;15.20;;;19.90;72.80;;;;;;5073631;28;20257;-86
2023/07/19 12:08:16;;;;;;;16.77;15.27;;;20.10;70.90;;;;;;5072783;28;20178;-86
2023/07/19 12:10:42;;;;;;;16.90;15.48;;;20.10;71.70;;;;;;5074194;28;20167;-86
2023/07/19 12:13:08;;;;;;;16.52;15.23;;;19.80;70.70;;;;;;5074603;28;20206;-86
2023/07/19 12:15:33;;;;;;;17.75;16.08;;;19.90;70.50;;;;;;5072625;28;20183;-86
2023/07/19 12:17:59;;;;;;;16.35;15.15;;;19.80;71.30;;;;;;5072539;28;20181;-86
2023/07/19 12:20:27;;;;;;;15.98;14.48;;;20.10;70.80;;;;;;5072390;28;20182;-86
2023/07/19 12:22:53;;;;;;;16.67;14.95;;;20.20;72.20;;;;;;5073962;28;20171;-87
2023/07/19 12:25:18;;;;;;;16.48;15.18;;;19.50;71.50;;;;;;5071915;28;20601;-87
2023/07/19 12:27:44;;;;;;;16.42;15.15;;;19.30;71.40;;;;;;5074166;28;20252;-84
2023/07/19 12:30:10;;;;;;;17.55;15.95;;;19.70;72.40;;;;;;5076321;28;20179;-87
2023/07/19 12:32:36;;;;;;;19.65;15.60;;;19.90;71.40;;;;;;5076311;28;20186;-86
2023/07/19 12:35:02;;;;;;;15.63;14.38;;;19.80;71.30;;;;;;5076226;28;20218;-86
2023/07/19 12:37:28;;;;;;;16.48;15.27;;;19.90;70.80;;;;;;5078012;28;20252;-87